sensor_id;sensor_type;location;lat;lon;timestamp;pressure;altitude;pressure_sealevel;temperature
31528;BMP280;10206;48.012;10.030;2023-05-14T00:02:22;94681.28;;;14.76
31528;BMP280;10206;48.012;10.030;2023-05-14T00:04:48;94678.16;;;14.70
31528;BMP280;10206;48.012;10.030;2023-05-14T00:07:14;94676.00;;;14.69
31528;BMP280;10206;48.012;10.030;2023-05-14T00:09:41;94671.59;;;14.64
31528;BMP280;10206;48.012;10.030;2023-05-14T00:12:07;94674.69;;;14.81
31528;BMP280;10206;48.012;10.030;2023-05-14T00:14:33;94674.44;;;14.77
31528;BMP280;10206;48.012;10.030;2023-05-14T00:17:00;94668.38;;;14.67
31528;BMP280;10206;48.012;10.030;2023-05-14T00:19:27;94663.56;;;14.68
31528;BMP280;10206;48.012;10.030;2023-05-14T00:21:53;94661.19;;;14.62
31528;BMP280;10206;48.012;10.030;2023-05-14T00:24:19;94657.88;;;14.64
31528;BMP280;10206;48.012;10.030;2023-05-14T00:26:45;94657.97;;;14.77
31528;BMP280;10206;48.012;10.030;2023-05-14T00:29:11;94660.84;;;14.79
31528;BMP280;10206;48.012;10.030;2023-05-14T00:31:37;94648.69;;;14.82
31528;BMP280;10206;48.012;10.030;2023-05-14T00:34:03;94655.34;;;14.79
31528;BMP280;10206;48.012;10.030;2023-05-14T00:36:30;94653.44;;;14.82
31528;BMP280;10206;48.012;10.030;2023-05-14T00:38:56;94655.00;;;14.73
31528;BMP280;10206;48.012;10.030;2023-05-14T00:41:22;94653.09;;;14.64
31528;BMP280;10206;48.012;10.030;2023-05-14T00:43:49;94651.78;;;14.77
31528;BMP280;10206;48.012;10.030;2023-05-14T00:46:15;94648.44;;;14.67
31528;BMP280;10206;48.012;10.030;2023-05-14T00:48:41;94653.44;;;14.82
31528;BMP280;10206;48.012;10.030;2023-05-14T00:51:08;94654.53;;;14.65
31528;BMP280;10206;48.012;10.030;2023-05-14T00:53:35;94656.91;;;14.71
31528;BMP280;10206;48.012;10.030;2023-05-14T00:56:02;94658.22;;;14.58
31528;BMP280;10206;48.012;10.030;2023-05-14T00:58:28;94654.28;;;14.73
31528;BMP280;10206;48.012;10.030;2023-05-14T01:00:54;94650.19;;;14.74
31528;BMP280;10206;48.012;10.030;2023-05-14T01:03:20;94647.25;;;14.70
31528;BMP280;10206;48.012;10.030;2023-05-14T01:05:55;94645.44;;;14.74
31528;BMP280;10206;48.012;10.030;2023-05-14T01:11:23;94646.97;;;14.77
31528;BMP280;10206;48.012;10.030;2023-05-14T01:16:18;94646.50;;;14.81
31528;BMP280;10206;48.012;10.030;2023-05-14T01:18:46;94649.25;;;14.81
31528;BMP280;10206;48.012;10.030;2023-05-14T01:21:39;94647.59;;;14.76
31528;BMP280;10206;48.012;10.030;2023-05-14T01:24:08;94651.06;;;14.88
31528;BMP280;10206;48.012;10.030;2023-05-14T01:26:34;94654.16;;;14.94
31528;BMP280;10206;48.012;10.030;2023-05-14T01:29:10;94648.41;;;14.90
31528;BMP280;10206;48.012;10.030;2023-05-14T01:31:39;94645.19;;;14.94
31528;BMP280;10206;48.012;10.030;2023-05-14T01:34:08;94645.19;;;14.94
31528;BMP280;10206;48.012;10.030;2023-05-14T01:36:36;94640.66;;;14.98
31528;BMP280;10206;48.012;10.030;2023-05-14T01:39:03;94643.03;;;14.92
31528;BMP280;10206;48.012;10.030;2023-05-14T01:41:30;94633.59;;;14.72
31528;BMP280;10206;48.012;10.030;2023-05-14T01:43:57;94640.41;;;14.94
31528;BMP280;10206;48.012;10.030;2023-05-14T01:46:23;94643.28;;;14.96
31528;BMP280;10206;48.012;10.030;2023-05-14T01:48:49;94638.75;;;14.89
31528;BMP280;10206;48.012;10.030;2023-05-14T01:51:16;94645.91;;;14.94
31528;BMP280;10206;48.012;10.030;2023-05-14T01:53:42;94639.09;;;14.95
31528;BMP280;10206;48.012;10.030;2023-05-14T01:56:08;94640.88;;;15.02
31528;BMP280;10206;48.012;10.030;2023-05-14T01:58:34;94639.34;;;14.88
31528;BMP280;10206;48.012;10.030;2023-05-14T02:01:00;94644.84;;;14.88
31528;BMP280;10206;48.012;10.030;2023-05-14T02:03:26;94643.63;;;14.91
31528;BMP280;10206;48.012;10.030;2023-05-14T02:05:53;94637.06;;;14.96
31528;BMP280;10206;48.012;10.030;2023-05-14T02:08:19;94636.59;;;14.88
31528;BMP280;10206;48.012;10.030;2023-05-14T02:10:45;94636.25;;;14.70
31528;BMP280;10206;48.012;10.030;2023-05-14T02:13:11;94629.09;;;14.76
31528;BMP280;10206;48.012;10.030;2023-05-14T02:15:37;94632.28;;;14.84
31528;BMP280;10206;48.012;10.030;2023-05-14T02:18:04;94630.13;;;14.71
31528;BMP280;10206;48.012;10.030;2023-05-14T02:20:30;94624.41;;;14.91
31528;BMP280;10206;48.012;10.030;2023-05-14T02:22:56;94636.09;;;14.91
31528;BMP280;10206;48.012;10.030;2023-05-14T02:25:22;94631.56;;;14.96
31528;BMP280;10206;48.012;10.030;2023-05-14T02:27:48;94628.47;;;14.90
31528;BMP280;10206;48.012;10.030;2023-05-14T02:30:14;94625.72;;;14.90
31528;BMP280;10206;48.012;10.030;2023-05-14T02:32:40;94619.50;;;14.89
31528;BMP280;10206;48.012;10.030;2023-05-14T02:35:07;94617.84;;;14.96
31528;BMP280;10206;48.012;10.030;2023-05-14T02:37:33;94614.75;;;14.90
31528;BMP280;10206;48.012;10.030;2023-05-14T02:40:02;94622.88;;;14.88
31528;BMP280;10206;48.012;10.030;2023-05-14T02:42:29;94620.00;;;14.85
31528;BMP280;10206;48.012;10.030;2023-05-14T02:44:55;94619.06;;;14.81
31528;BMP280;10206;48.012;10.030;2023-05-14T02:47:21;94615.72;;;14.82
31528;BMP280;10206;48.012;10.030;2023-05-14T02:49:47;94616.31;;;14.58
31528;BMP280;10206;48.012;10.030;2023-05-14T02:52:13;94616.75;;;14.77
31528;BMP280;10206;48.012;10.030;2023-05-14T02:54:39;94611.53;;;14.81
31528;BMP280;10206;48.012;10.030;2023-05-14T02:57:05;94604.38;;;14.76
31528;BMP280;10206;48.012;10.030;2023-05-14T02:59:31;94603.53;;;14.74
31528;BMP280;10206;48.012;10.030;2023-05-14T03:01:57;94600.22;;;14.52
31528;BMP280;10206;48.012;10.030;2023-05-14T03:04:23;94595.53;;;14.66
31528;BMP280;10206;48.012;10.030;2023-05-14T03:06:50;94599.72;;;14.67
31528;BMP280;10206;48.012;10.030;2023-05-14T03:09:16;94597.69;;;14.68
31528;BMP280;10206;48.012;10.030;2023-05-14T03:11:42;94598.41;;;14.34
31528;BMP280;10206;48.012;10.030;2023-05-14T03:14:08;94607.25;;;14.67
31528;BMP280;10206;48.012;10.030;2023-05-14T03:16:34;94598.16;;;14.64
31528;BMP280;10206;48.012;10.030;2023-05-14T03:19:00;94600.19;;;14.75
31528;BMP280;10206;48.012;10.030;2023-05-14T03:21:26;94597.34;;;14.73
31528;BMP280;10206;48.012;10.030;2023-05-14T03:23:52;94600.06;;;14.62
31528;BMP280;10206;48.012;10.030;2023-05-14T03:26:19;94595.81;;;14.70
31528;BMP280;10206;48.012;10.030;2023-05-14T03:28:46;94606.28;;;14.74
31528;BMP280;10206;48.012;10.030;2023-05-14T03:31:12;94592.78;;;14.78
31528;BMP280;10206;48.012;10.030;2023-05-14T03:33:38;94593.25;;;14.74
31528;BMP280;10206;48.012;10.030;2023-05-14T03:36:05;94605.47;;;14.60
31528;BMP280;10206;48.012;10.030;2023-05-14T03:38:31;94601.28;;;14.70
31528;BMP280;10206;48.012;10.030;2023-05-14T03:40:57;94593.75;;;14.82
31528;BMP280;10206;48.012;10.030;2023-05-14T03:43:23;94596.59;;;14.84
31528;BMP280;10206;48.012;10.030;2023-05-14T03:45:49;94590.75;;;14.78
31528;BMP280;10206;48.012;10.030;2023-05-14T03:48:18;94596.72;;;14.87
31528;BMP280;10206;48.012;10.030;2023-05-14T03:50:44;94590.03;;;14.90
31528;BMP280;10206;48.012;10.030;2023-05-14T03:53:10;94588.56;;;14.88
31528;BMP280;10206;48.012;10.030;2023-05-14T03:55:36;94594.34;;;14.93
31528;BMP280;10206;48.012;10.030;2023-05-14T03:58:02;94584.34;;;14.62
31528;BMP280;10206;48.012;10.030;2023-05-14T04:00:32;94593.63;;;14.80
31528;BMP280;10206;48.012;10.030;2023-05-14T04:02:58;94585.75;;;14.87
31528;BMP280;10206;48.012;10.030;2023-05-14T04:05:24;94596.72;;;14.87
31528;BMP280;10206;48.012;10.030;2023-05-14T04:07:50;94597.53;;;14.77
31528;BMP280;10206;48.012;10.030;2023-05-14T04:10:17;94596.25;;;14.78
31528;BMP280;10206;48.012;10.030;2023-05-14T04:12:43;94598.91;;;14.76
31528;BMP280;10206;48.012;10.030;2023-05-14T04:15:09;94598.03;;;14.85
31528;BMP280;10206;48.012;10.030;2023-05-14T04:17:36;94601.72;;;14.90
31528;BMP280;10206;48.012;10.030;2023-05-14T04:20:02;94594.34;;;14.81
31528;BMP280;10206;48.012;10.030;2023-05-14T04:22:29;94592.78;;;14.66
31528;BMP280;10206;48.012;10.030;2023-05-14T04:24:55;94597.91;;;14.72
31528;BMP280;10206;48.012;10.030;2023-05-14T04:27:21;94590.06;;;14.66
31528;BMP280;10206;48.012;10.030;2023-05-14T04:29:48;94592.66;;;14.88
31528;BMP280;10206;48.012;10.030;2023-05-14T04:32:14;94592.06;;;14.77
31528;BMP280;10206;48.012;10.030;2023-05-14T04:34:40;94596.00;;;14.74
31528;BMP280;10206;48.012;10.030;2023-05-14T04:37:06;94596.88;;;14.77
31528;BMP280;10206;48.012;10.030;2023-05-14T04:39:32;94587.59;;;14.47
31528;BMP280;10206;48.012;10.030;2023-05-14T04:41:59;94589.31;;;14.77
31528;BMP280;10206;48.012;10.030;2023-05-14T04:44:25;94590.53;;;14.74
31528;BMP280;10206;48.012;10.030;2023-05-14T04:46:51;94588.50;;;14.87
31528;BMP280;10206;48.012;10.030;2023-05-14T04:49:17;94591.25;;;14.87
31528;BMP280;10206;48.012;10.030;2023-05-14T04:51:43;94592.69;;;14.64
31528;BMP280;10206;48.012;10.030;2023-05-14T04:54:09;94582.16;;;14.72
31528;BMP280;10206;48.012;10.030;2023-05-14T04:56:35;94587.41;;;14.68
31528;BMP280;10206;48.012;10.030;2023-05-14T04:59:01;94589.69;;;14.60
31528;BMP280;10206;48.012;10.030;2023-05-14T05:01:27;94589.75;;;14.97
31528;BMP280;10206;48.012;10.030;2023-05-14T05:03:53;94592.16;;;14.91
31528;BMP280;10206;48.012;10.030;2023-05-14T05:06:20;94596.72;;;14.75
31528;BMP280;10206;48.012;10.030;2023-05-14T05:08:46;94591.09;;;14.96
31528;BMP280;10206;48.012;10.030;2023-05-14T05:11:12;94586.66;;;15.03
31528;BMP280;10206;48.012;10.030;2023-05-14T05:13:38;94590.97;;;15.06
31528;BMP280;10206;48.012;10.030;2023-05-14T05:16:04;94585.22;;;15.02
31528;BMP280;10206;48.012;10.030;2023-05-14T05:18:30;94588.81;;;15.04
31528;BMP280;10206;48.012;10.030;2023-05-14T05:20:57;94590.25;;;14.94
31528;BMP280;10206;48.012;10.030;2023-05-14T05:23:23;94585.47;;;15.06
31528;BMP280;10206;48.012;10.030;2023-05-14T05:25:49;94579.09;;;15.15
31528;BMP280;10206;48.012;10.030;2023-05-14T05:28:16;94583.81;;;15.26
31528;BMP280;10206;48.012;10.030;2023-05-14T05:30:42;94579.91;;;15.17
31528;BMP280;10206;48.012;10.030;2023-05-14T05:33:10;94582.53;;;15.27
31528;BMP280;10206;48.012;10.030;2023-05-14T05:35:36;94580.16;;;15.21
31528;BMP280;10206;48.012;10.030;2023-05-14T05:38:03;94581.06;;;15.26
31528;BMP280;10206;48.012;10.030;2023-05-14T05:40:29;94587.28;;;15.38
31528;BMP280;10206;48.012;10.030;2023-05-14T05:42:55;94583.97;;;15.28
31528;BMP280;10206;48.012;10.030;2023-05-14T05:45:21;94585.00;;;14.98
31528;BMP280;10206;48.012;10.030;2023-05-14T05:47:47;94582.06;;;15.19
31528;BMP280;10206;48.012;10.030;2023-05-14T05:50:13;94584.47;;;15.13
31528;BMP280;10206;48.012;10.030;2023-05-14T05:52:40;94588.53;;;15.12
31528;BMP280;10206;48.012;10.030;2023-05-14T05:55:06;94584.28;;;15.34
31528;BMP280;10206;48.012;10.030;2023-05-14T05:57:32;94596.34;;;15.29
31528;BMP280;10206;48.012;10.030;2023-05-14T05:59:58;94592.06;;;15.26
31528;BMP280;10206;48.012;10.030;2023-05-14T06:02:25;94595.59;;;15.40
31528;BMP280;10206;48.012;10.030;2023-05-14T06:04:51;94595.44;;;15.24
31528;BMP280;10206;48.012;10.030;2023-05-14T06:07:17;94593.75;;;15.19
31528;BMP280;10206;48.012;10.030;2023-05-14T06:09:43;94595.19;;;15.32
31528;BMP280;10206;48.012;10.030;2023-05-14T06:12:09;94597.53;;;15.37
31528;BMP280;10206;48.012;10.030;2023-05-14T06:14:36;94592.84;;;15.03
31528;BMP280;10206;48.012;10.030;2023-05-14T06:17:02;94604.78;;;15.08
31528;BMP280;10206;48.012;10.030;2023-05-14T06:19:28;94590.84;;;15.29
31528;BMP280;10206;48.012;10.030;2023-05-14T06:21:54;94599.06;;;15.15
31528;BMP280;10206;48.012;10.030;2023-05-14T06:24:20;94594.78;;;14.89
31528;BMP280;10206;48.012;10.030;2023-05-14T06:26:46;94595.47;;;15.01
31528;BMP280;10206;48.012;10.030;2023-05-14T06:29:14;94587.63;;;15.32
31528;BMP280;10206;48.012;10.030;2023-05-14T06:31:40;94600.13;;;15.47
31528;BMP280;10206;48.012;10.030;2023-05-14T06:34:06;94597.72;;;15.53
31528;BMP280;10206;48.012;10.030;2023-05-14T06:36:32;94595.44;;;15.13
31528;BMP280;10206;48.012;10.030;2023-05-14T06:38:58;94598.00;;;15.34
31528;BMP280;10206;48.012;10.030;2023-05-14T06:41:25;94602.97;;;15.49
31528;BMP280;10206;48.012;10.030;2023-05-14T06:43:51;94604.81;;;15.69
31528;BMP280;10206;48.012;10.030;2023-05-14T06:46:17;94596.31;;;15.04
31528;BMP280;10206;48.012;10.030;2023-05-14T06:48:43;94597.78;;;15.66
31528;BMP280;10206;48.012;10.030;2023-05-14T06:51:09;94595.78;;;15.55
31528;BMP280;10206;48.012;10.030;2023-05-14T06:53:36;94594.53;;;15.84
31528;BMP280;10206;48.012;10.030;2023-05-14T06:56:02;94598.53;;;15.55
31528;BMP280;10206;48.012;10.030;2023-05-14T06:58:28;94599.53;;;15.12
31528;BMP280;10206;48.012;10.030;2023-05-14T07:00:54;94599.22;;;15.31
31528;BMP280;10206;48.012;10.030;2023-05-14T07:03:20;94590.78;;;15.52
31528;BMP280;10206;48.012;10.030;2023-05-14T07:05:47;94586.47;;;15.60
31528;BMP280;10206;48.012;10.030;2023-05-14T07:08:13;94587.28;;;15.38
31528;BMP280;10206;48.012;10.030;2023-05-14T07:10:39;94591.72;;;15.56
31528;BMP280;10206;48.012;10.030;2023-05-14T07:13:06;94593.31;;;15.48
31528;BMP280;10206;48.012;10.030;2023-05-14T07:15:32;94598.09;;;15.73
31528;BMP280;10206;48.012;10.030;2023-05-14T07:17:59;94594.75;;;15.49
31528;BMP280;10206;48.012;10.030;2023-05-14T07:20:25;94601.25;;;15.81
31528;BMP280;10206;48.012;10.030;2023-05-14T07:22:52;94598.69;;;15.46
31528;BMP280;10206;48.012;10.030;2023-05-14T07:25:18;94593.66;;;15.54
31528;BMP280;10206;48.012;10.030;2023-05-14T07:27:44;94597.13;;;15.18
31528;BMP280;10206;48.012;10.030;2023-05-14T07:30:10;94594.13;;;15.50
31528;BMP280;10206;48.012;10.030;2023-05-14T07:32:36;94589.06;;;15.58
31528;BMP280;10206;48.012;10.030;2023-05-14T07:35:03;94584.72;;;15.42
31528;BMP280;10206;48.012;10.030;2023-05-14T07:37:29;94589.47;;;15.53
31528;BMP280;10206;48.012;10.030;2023-05-14T07:39:55;94591.38;;;15.25
31528;BMP280;10206;48.012;10.030;2023-05-14T07:42:21;94595.03;;;15.66
31528;BMP280;10206;48.012;10.030;2023-05-14T07:44:47;94598.72;;;15.85
31528;BMP280;10206;48.012;10.030;2023-05-14T07:47:13;94591.16;;;15.72
31528;BMP280;10206;48.012;10.030;2023-05-14T07:49:39;94588.56;;;15.62
31528;BMP280;10206;48.012;10.030;2023-05-14T07:52:06;94594.53;;;15.70
31528;BMP280;10206;48.012;10.030;2023-05-14T07:54:32;94592.03;;;15.37
31528;BMP280;10206;48.012;10.030;2023-05-14T07:56:58;94584.88;;;15.32
31528;BMP280;10206;48.012;10.030;2023-05-14T07:59:24;94591.09;;;15.33
31528;BMP280;10206;48.012;10.030;2023-05-14T08:01:50;94585.00;;;15.23
31528;BMP280;10206;48.012;10.030;2023-05-14T08:04:17;94596.88;;;15.14
31528;BMP280;10206;48.012;10.030;2023-05-14T08:06:43;94587.25;;;15.63
31528;BMP280;10206;48.012;10.030;2023-05-14T08:09:09;94588.56;;;15.62
31528;BMP280;10206;48.012;10.030;2023-05-14T08:11:35;94586.94;;;15.57
31528;BMP280;10206;48.012;10.030;2023-05-14T08:14:01;94580.66;;;15.43
31528;BMP280;10206;48.012;10.030;2023-05-14T08:16:27;94589.88;;;15.61
31528;BMP280;10206;48.012;10.030;2023-05-14T08:18:53;94582.09;;;15.69
31528;BMP280;10206;48.012;10.030;2023-05-14T08:21:19;94585.34;;;15.65
31528;BMP280;10206;48.012;10.030;2023-05-14T08:23:45;94584.91;;;15.83
31528;BMP280;10206;48.012;10.030;2023-05-14T08:26:11;94588.69;;;16.03
31528;BMP280;10206;48.012;10.030;2023-05-14T08:28:37;94578.56;;;15.94
31528;BMP280;10206;48.012;10.030;2023-05-14T08:31:03;94589.41;;;15.64
31528;BMP280;10206;48.012;10.030;2023-05-14T08:33:30;94584.59;;;15.90
31528;BMP280;10206;48.012;10.030;2023-05-14T08:35:56;94579.94;;;16.06
31528;BMP280;10206;48.012;10.030;2023-05-14T08:38:25;94580.06;;;16.08
31528;BMP280;10206;48.012;10.030;2023-05-14T08:40:56;94576.59;;;16.21
31528;BMP280;10206;48.012;10.030;2023-05-14T08:43:26;94572.94;;;16.57
31528;BMP280;10206;48.012;10.030;2023-05-14T08:45:59;94574.06;;;16.52
31528;BMP280;10206;48.012;10.030;2023-05-14T08:48:31;94573.28;;;16.50
31528;BMP280;10206;48.012;10.030;2023-05-14T08:50:59;94571.53;;;15.77
31528;BMP280;10206;48.012;10.030;2023-05-14T08:53:25;94565.38;;;16.04
31528;BMP280;10206;48.012;10.030;2023-05-14T08:55:53;94555.88;;;16.07
31528;BMP280;10206;48.012;10.030;2023-05-14T08:58:19;94563.97;;;15.64
31528;BMP280;10206;48.012;10.030;2023-05-14T09:00:45;94553.75;;;15.16
31528;BMP280;10206;48.012;10.030;2023-05-14T09:03:12;94550.69;;;15.35
31528;BMP280;10206;48.012;10.030;2023-05-14T09:05:39;94553.09;;;15.80
31528;BMP280;10206;48.012;10.030;2023-05-14T09:08:06;94560.91;;;15.46
31528;BMP280;10206;48.012;10.030;2023-05-14T09:10:32;94557.22;;;15.17
31528;BMP280;10206;48.012;10.030;2023-05-14T09:12:58;94559.81;;;15.26
31528;BMP280;10206;48.012;10.030;2023-05-14T09:15:27;94558.56;;;15.41
31528;BMP280;10206;48.012;10.030;2023-05-14T09:17:53;94564.94;;;15.57
31528;BMP280;10206;48.012;10.030;2023-05-14T09:20:20;94563.78;;;15.48
31528;BMP280;10206;48.012;10.030;2023-05-14T09:22:48;94561.25;;;15.27
31528;BMP280;10206;48.012;10.030;2023-05-14T09:25:17;94569.06;;;15.08
31528;BMP280;10206;48.012;10.030;2023-05-14T09:27:46;94565.38;;;15.15
31528;BMP280;10206;48.012;10.030;2023-05-14T09:30:15;94572.59;;;14.85
31528;BMP280;10206;48.012;10.030;2023-05-14T09:32:43;94563.91;;;15.14
31528;BMP280;10206;48.012;10.030;2023-05-14T09:35:11;94564.72;;;15.53
31528;BMP280;10206;48.012;10.030;2023-05-14T09:37:41;94563.50;;;15.06
31528;BMP280;10206;48.012;10.030;2023-05-14T09:40:09;94572.31;;;15.16
31528;BMP280;10206;48.012;10.030;2023-05-14T09:42:35;94563.25;;;15.02
31528;BMP280;10206;48.012;10.030;2023-05-14T09:45:01;94555.13;;;15.04
31528;BMP280;10206;48.012;10.030;2023-05-14T09:47:29;94559.78;;;15.38
31528;BMP280;10206;48.012;10.030;2023-05-14T09:49:56;94558.00;;;15.06
31528;BMP280;10206;48.012;10.030;2023-05-14T09:52:25;94567.06;;;14.97
31528;BMP280;10206;48.012;10.030;2023-05-14T09:54:52;94564.88;;;14.70
31528;BMP280;10206;48.012;10.030;2023-05-14T09:57:19;94553.88;;;14.81
31528;BMP280;10206;48.012;10.030;2023-05-14T09:59:45;94561.84;;;14.77
31528;BMP280;10206;48.012;10.030;2023-05-14T10:02:20;94561.41;;;14.58
31528;BMP280;10206;48.012;10.030;2023-05-14T10:04:48;94553.22;;;14.95
31528;BMP280;10206;48.012;10.030;2023-05-14T10:07:20;94557.84;;;14.67
31528;BMP280;10206;48.012;10.030;2023-05-14T10:09:48;94558.00;;;15.06
31528;BMP280;10206;48.012;10.030;2023-05-14T10:12:20;94549.41;;;15.00
31528;BMP280;10206;48.012;10.030;2023-05-14T10:14:49;94548.31;;;15.05
31528;BMP280;10206;48.012;10.030;2023-05-14T10:17:20;94550.41;;;15.18
31528;BMP280;10206;48.012;10.030;2023-05-14T10:19:51;94553.22;;;15.31
31528;BMP280;10206;48.012;10.030;2023-05-14T10:22:22;94556.22;;;15.24
31528;BMP280;10206;48.012;10.030;2023-05-14T10:24:48;94554.94;;;15.25
31528;BMP280;10206;48.012;10.030;2023-05-14T10:27:19;94549.69;;;15.42
31528;BMP280;10206;48.012;10.030;2023-05-14T10:29:51;94543.63;;;15.07
31528;BMP280;10206;48.012;10.030;2023-05-14T10:32:22;94547.00;;;15.06
31528;BMP280;10206;48.012;10.030;2023-05-14T10:34:50;94557.22;;;15.67
31528;BMP280;10206;48.012;10.030;2023-05-14T10:37:19;94552.34;;;16.18
31528;BMP280;10206;48.012;10.030;2023-05-14T10:39:50;94552.97;;;15.64
31528;BMP280;10206;48.012;10.030;2023-05-14T10:45:05;94550.56;;;15.97
31528;BMP280;10206;48.012;10.030;2023-05-14T10:47:44;94550.69;;;16.13
31528;BMP280;10206;48.012;10.030;2023-05-14T10:50:12;94547.81;;;15.58
31528;BMP280;10206;48.012;10.030;2023-05-14T10:52:41;94548.56;;;15.98
31528;BMP280;10206;48.012;10.030;2023-05-14T10:55:11;94547.59;;;15.80
31528;BMP280;10206;48.012;10.030;2023-05-14T10:57:38;94538.22;;;15.46
31528;BMP280;10206;48.012;10.030;2023-05-14T11:00:05;94543.56;;;15.55
31528;BMP280;10206;48.012;10.030;2023-05-14T11:02:38;94537.56;;;15.09
31528;BMP280;10206;48.012;10.030;2023-05-14T11:05:06;94546.44;;;15.71
31528;BMP280;10206;48.012;10.030;2023-05-14T11:07:35;94545.66;;;15.82
31528;BMP280;10206;48.012;10.030;2023-05-14T11:10:09;94545.03;;;15.70
31528;BMP280;10206;48.012;10.030;2023-05-14T11:12:37;94541.41;;;15.67
31528;BMP280;10206;48.012;10.030;2023-05-14T11:15:07;94538.91;;;15.72
31528;BMP280;10206;48.012;10.030;2023-05-14T11:17:38;94535.81;;;16.04
31528;BMP280;10206;48.012;10.030;2023-05-14T11:20:05;94533.06;;;16.04
31528;BMP280;10206;48.012;10.030;2023-05-14T11:22:33;94528.06;;;16.41
31528;BMP280;10206;48.012;10.030;2023-05-14T11:24:59;94530.81;;;16.69
31528;BMP280;10206;48.012;10.030;2023-05-14T11:27:25;94530.09;;;16.68
31528;BMP280;10206;48.012;10.030;2023-05-14T11:29:52;94527.44;;;16.56
31528;BMP280;10206;48.012;10.030;2023-05-14T11:32:19;94533.47;;;17.09
31528;BMP280;10206;48.012;10.030;2023-05-14T11:34:48;94526.34;;;17.04
31528;BMP280;10206;48.012;10.030;2023-05-14T11:37:15;94529.69;;;17.32
31528;BMP280;10206;48.012;10.030;2023-05-14T11:39:50;94526.56;;;17.53
31528;BMP280;10206;48.012;10.030;2023-05-14T11:42:17;94525.28;;;18.34
31528;BMP280;10206;48.012;10.030;2023-05-14T11:44:48;94537.41;;;17.96
31528;BMP280;10206;48.012;10.030;2023-05-14T11:47:15;94529.50;;;17.73
31528;BMP280;10206;48.012;10.030;2023-05-14T11:49:42;94519.13;;;17.42
31528;BMP280;10206;48.012;10.030;2023-05-14T11:52:09;94519.28;;;16.58
31528;BMP280;10206;48.012;10.030;2023-05-14T11:54:44;94510.72;;;16.52
31528;BMP280;10206;48.012;10.030;2023-05-14T11:57:15;94517.59;;;16.94
31528;BMP280;10206;48.012;10.030;2023-05-14T11:59:42;94514.28;;;16.69
31528;BMP280;10206;48.012;10.030;2023-05-14T12:02:10;94505.78;;;16.78
31528;BMP280;10206;48.012;10.030;2023-05-14T12:04:37;94506.19;;;17.15
31528;BMP280;10206;48.012;10.030;2023-05-14T12:07:11;94507.84;;;17.07
31528;BMP280;10206;48.012;10.030;2023-05-14T12:09:42;94513.75;;;17.15
31528;BMP280;10206;48.012;10.030;2023-05-14T12:12:14;94499.00;;;17.24
31528;BMP280;10206;48.012;10.030;2023-05-14T12:14:42;94510.25;;;17.90
31528;BMP280;10206;48.012;10.030;2023-05-14T12:17:20;94512.59;;;18.11
31528;BMP280;10206;48.012;10.030;2023-05-14T12:19:50;94503.03;;;18.14
31528;BMP280;10206;48.012;10.030;2023-05-14T12:22:22;94492.81;;;18.17
31528;BMP280;10206;48.012;10.030;2023-05-14T12:24:58;94501.81;;;18.17
31528;BMP280;10206;48.012;10.030;2023-05-14T12:27:28;94498.53;;;18.05
31528;BMP280;10206;48.012;10.030;2023-05-14T12:30:05;94495.41;;;17.66
31528;BMP280;10206;48.012;10.030;2023-05-14T12:32:32;94483.41;;;17.60
31528;BMP280;10206;48.012;10.030;2023-05-14T12:34:59;94487.91;;;18.49
31528;BMP280;10206;48.012;10.030;2023-05-14T12:37:26;94483.88;;;18.34
31528;BMP280;10206;48.012;10.030;2023-05-14T12:39:53;94484.91;;;17.47
31528;BMP280;10206;48.012;10.030;2023-05-14T12:42:19;94484.13;;;17.60
31528;BMP280;10206;48.012;10.030;2023-05-14T12:44:45;94484.91;;;17.78
31528;BMP280;10206;48.012;10.030;2023-05-14T12:47:11;94481.38;;;18.24
31528;BMP280;10206;48.012;10.030;2023-05-14T12:49:38;94475.75;;;18.22
31528;BMP280;10206;48.012;10.030;2023-05-14T12:52:04;94478.81;;;18.46
31528;BMP280;10206;48.012;10.030;2023-05-14T12:54:30;94473.81;;;18.58
31528;BMP280;10206;48.012;10.030;2023-05-14T12:56:57;94473.09;;;18.93
31528;BMP280;10206;48.012;10.030;2023-05-14T12:59:23;94470.66;;;19.01
31528;BMP280;10206;48.012;10.030;2023-05-14T13:01:49;94465.81;;;19.19
31528;BMP280;10206;48.012;10.030;2023-05-14T13:04:15;94461.22;;;19.25
31528;BMP280;10206;48.012;10.030;2023-05-14T13:06:41;94457.13;;;19.26
31528;BMP280;10206;48.012;10.030;2023-05-14T13:09:07;94465.06;;;18.81
31528;BMP280;10206;48.012;10.030;2023-05-14T13:11:34;94460.63;;;18.92
31528;BMP280;10206;48.012;10.030;2023-05-14T13:14:01;94446.56;;;19.21
31528;BMP280;10206;48.012;10.030;2023-05-14T13:16:28;94442.16;;;19.33
31528;BMP280;10206;48.012;10.030;2023-05-14T13:18:54;94453.97;;;19.73
31528;BMP280;10206;48.012;10.030;2023-05-14T13:21:20;94454.13;;;19.77
31528;BMP280;10206;48.012;10.030;2023-05-14T13:23:47;94447.94;;;19.98
31528;BMP280;10206;48.012;10.030;2023-05-14T13:26:14;94440.78;;;19.52
31528;BMP280;10206;48.012;10.030;2023-05-14T13:28:40;94440.13;;;19.93
31528;BMP280;10206;48.012;10.030;2023-05-14T13:31:11;94433.13;;;20.76
31528;BMP280;10206;48.012;10.030;2023-05-14T13:33:42;94436.72;;;20.35
31528;BMP280;10206;48.012;10.030;2023-05-14T13:36:10;94430.06;;;20.66
31528;BMP280;10206;48.012;10.030;2023-05-14T13:38:36;94421.41;;;19.91
31528;BMP280;10206;48.012;10.030;2023-05-14T13:41:03;94430.06;;;19.62
31528;BMP280;10206;48.012;10.030;2023-05-14T13:43:33;94413.44;;;19.62
31528;BMP280;10206;48.012;10.030;2023-05-14T13:46:02;94418.06;;;19.75
31528;BMP280;10206;48.012;10.030;2023-05-14T13:48:29;94416.94;;;19.82
31528;BMP280;10206;48.012;10.030;2023-05-14T13:50:56;94403.44;;;20.14
31528;BMP280;10206;48.012;10.030;2023-05-14T13:53:23;94409.50;;;19.89
31528;BMP280;10206;48.012;10.030;2023-05-14T13:55:49;94399.97;;;19.33
31528;BMP280;10206;48.012;10.030;2023-05-14T13:58:21;94406.47;;;19.22
31528;BMP280;10206;48.012;10.030;2023-05-14T14:00:49;94405.91;;;19.84
31528;BMP280;10206;48.012;10.030;2023-05-14T14:03:15;94404.56;;;19.85
31528;BMP280;10206;48.012;10.030;2023-05-14T14:05:41;94400.63;;;19.92